sensor_id;sensor_type;location;lat;lon;timestamp;pressure;altitude;pressure_sealevel;temperature;humidity
74613;BME280;63119;51.788;8.824;2023-04-26T00:01:34;100214.09;;;3.55;78.88
74613;BME280;63119;51.788;8.824;2023-04-26T00:03:59;100218.78;;;3.70;78.02
74613;BME280;63119;51.788;8.824;2023-04-26T00:06:25;100220.38;;;3.74;78.18
74613;BME280;63119;51.788;8.824;2023-04-26T00:08:51;100223.31;;;3.65;78.83
74613;BME280;63119;51.788;8.824;2023-04-26T00:11:16;100224.69;;;3.75;78.29
74613;BME280;63119;51.788;8.824;2023-04-26T00:13:41;100220.25;;;3.54;78.96
74613;BME280;63119;51.788;8.824;2023-04-26T00:16:07;100221.63;;;3.64;77.99
74613;BME280;63119;51.788;8.824;2023-04-26T00:18:32;100222.06;;;3.52;79.54
74613;BME280;63119;51.788;8.824;2023-04-26T00:20:57;100221.75;;;3.61;78.70
74613;BME280;63119;51.788;8.824;2023-04-26T00:23:23;100214.00;;;3.58;79.45
74613;BME280;63119;51.788;8.824;2023-04-26T00:25:48;100217.53;;;3.80;77.77
74613;BME280;63119;51.788;8.824;2023-04-26T00:28:13;100218.78;;;3.70;77.13
74613;BME280;63119;51.788;8.824;2023-04-26T00:30:38;100222.72;;;3.34;80.07
74613;BME280;63119;51.788;8.824;2023-04-26T00:33:11;100219.78;;;3.43;79.84
74613;BME280;63119;51.788;8.824;2023-04-26T00:35:36;100227.44;;;3.72;78.38
74613;BME280;63119;51.788;8.824;2023-04-26T00:38:02;100224.06;;;3.44;79.03
74613;BME280;63119;51.788;8.824;2023-04-26T00:40:27;100225.22;;;3.61;78.26
74613;BME280;63119;51.788;8.824;2023-04-26T00:42:56;100223.16;;;3.46;78.62
74613;BME280;63119;51.788;8.824;2023-04-26T00:45:22;100222.84;;;3.54;78.24
74613;BME280;63119;51.788;8.824;2023-04-26T00:47:47;100228.41;;;3.45;78.27
74613;BME280;63119;51.788;8.824;2023-04-26T00:50:12;100227.88;;;3.35;78.29
74613;BME280;63119;51.788;8.824;2023-04-26T00:52:38;100223.41;;;3.39;78.70
74613;BME280;63119;51.788;8.824;2023-04-26T00:55:04;100223.50;;;3.60;77.48
74613;BME280;63119;51.788;8.824;2023-04-26T00:57:30;100230.44;;;3.61;77.53
74613;BME280;63119;51.788;8.824;2023-04-26T00:59:55;100217.63;;;3.29;79.37
74613;BME280;63119;51.788;8.824;2023-04-26T01:02:21;100220.56;;;3.20;80.18
74613;BME280;63119;51.788;8.824;2023-04-26T01:04:46;100225.03;;;2.92;81.17
74613;BME280;63119;51.788;8.824;2023-04-26T01:07:12;100222.94;;;2.75;82.15
74613;BME280;63119;51.788;8.824;2023-04-26T01:09:38;100218.91;;;2.65;82.30
74613;BME280;63119;51.788;8.824;2023-04-26T01:12:05;100220.06;;;2.56;82.39
74613;BME280;63119;51.788;8.824;2023-04-26T01:14:31;100223.31;;;2.91;80.04
74613;BME280;63119;51.788;8.824;2023-04-26T01:16:56;100220.13;;;2.81;80.72
74613;BME280;63119;51.788;8.824;2023-04-26T01:19:22;100223.75;;;2.77;80.96
74613;BME280;63119;51.788;8.824;2023-04-26T01:21:47;100230.56;;;2.83;81.10
74613;BME280;63119;51.788;8.824;2023-04-26T01:24:12;100225.56;;;2.75;81.16
74613;BME280;63119;51.788;8.824;2023-04-26T01:26:38;100230.09;;;2.96;79.91
74613;BME280;63119;51.788;8.824;2023-04-26T01:29:17;100223.63;;;2.80;79.64
74613;BME280;63119;51.788;8.824;2023-04-26T01:31:42;100227.75;;;2.89;79.81
74613;BME280;63119;51.788;8.824;2023-04-26T01:34:07;100230.66;;;3.04;79.23
74613;BME280;63119;51.788;8.824;2023-04-26T01:36:33;100224.03;;;3.20;78.18
74613;BME280;63119;51.788;8.824;2023-04-26T01:38:58;100231.69;;;3.00;78.55
74613;BME280;63119;51.788;8.824;2023-04-26T01:41:23;100229.53;;;3.13;77.55
74613;BME280;63119;51.788;8.824;2023-04-26T01:43:49;100230.50;;;2.84;78.66
74613;BME280;63119;51.788;8.824;2023-04-26T01:46:14;100220.41;;;2.73;79.07
74613;BME280;63119;51.788;8.824;2023-04-26T01:48:39;100223.94;;;2.71;79.17
74613;BME280;63119;51.788;8.824;2023-04-26T01:51:05;100230.66;;;2.80;79.19
74613;BME280;63119;51.788;8.824;2023-04-26T01:53:30;100225.44;;;2.52;80.57
74613;BME280;63119;51.788;8.824;2023-04-26T01:55:56;100227.31;;;2.74;78.65
74613;BME280;63119;51.788;8.824;2023-04-26T01:58:21;100226.78;;;2.91;77.89
74613;BME280;63119;51.788;8.824;2023-04-26T02:00:46;100229.19;;;2.97;77.85
74613;BME280;63119;51.788;8.824;2023-04-26T02:03:11;100226.91;;;2.87;77.75
74613;BME280;63119;51.788;8.824;2023-04-26T02:05:37;100229.88;;;2.76;77.64
74613;BME280;63119;51.788;8.824;2023-04-26T02:08:02;100227.56;;;2.67;78.37
74613;BME280;63119;51.788;8.824;2023-04-26T02:10:28;100229.34;;;2.65;79.09
74613;BME280;63119;51.788;8.824;2023-04-26T02:12:53;100235.97;;;2.77;78.44
74613;BME280;63119;51.788;8.824;2023-04-26T02:15:18;100229.88;;;2.76;78.02
74613;BME280;63119;51.788;8.824;2023-04-26T02:17:44;100224.53;;;2.53;79.28
74613;BME280;63119;51.788;8.824;2023-04-26T02:20:09;100224.69;;;2.48;79.04
74613;BME280;63119;51.788;8.824;2023-04-26T02:22:35;100230.75;;;2.49;79.13
74613;BME280;63119;51.788;8.824;2023-04-26T02:25:00;100236.91;;;2.46;79.85
74613;BME280;63119;51.788;8.824;2023-04-26T02:27:26;100238.22;;;2.33;80.57
74613;BME280;63119;51.788;8.824;2023-04-26T02:29:51;100235.91;;;2.52;79.29
74613;BME280;63119;51.788;8.824;2023-04-26T02:32:17;100232.13;;;2.33;79.97
74613;BME280;63119;51.788;8.824;2023-04-26T02:34:43;100238.41;;;2.27;79.99
74613;BME280;63119;51.788;8.824;2023-04-26T02:37:08;100244.88;;;2.14;80.24
74613;BME280;63119;51.788;8.824;2023-04-26T02:39:33;100240.81;;;2.04;81.66
74613;BME280;63119;51.788;8.824;2023-04-26T02:41:59;100233.13;;;1.99;81.11
74613;BME280;63119;51.788;8.824;2023-04-26T02:44:24;100235.50;;;2.07;80.73
74613;BME280;63119;51.788;8.824;2023-04-26T02:46:52;100235.66;;;2.02;81.26
74613;BME280;63119;51.788;8.824;2023-04-26T02:49:17;100236.44;;;2.04;81.51
74613;BME280;63119;51.788;8.824;2023-04-26T02:51:43;100233.84;;;2.34;79.59
74613;BME280;63119;51.788;8.824;2023-04-26T02:54:08;100239.78;;;2.39;79.41
74613;BME280;63119;51.788;8.824;2023-04-26T02:56:33;100233.94;;;2.31;79.06
74613;BME280;63119;51.788;8.824;2023-04-26T02:58:58;100234.03;;;2.28;78.81
74613;BME280;63119;51.788;8.824;2023-04-26T03:01:24;100237.44;;;2.30;79.83
74613;BME280;63119;51.788;8.824;2023-04-26T03:03:49;100237.34;;;2.33;79.24
74613;BME280;63119;51.788;8.824;2023-04-26T03:06:14;100233.94;;;2.31;79.10
74613;BME280;63119;51.788;8.824;2023-04-26T03:08:39;100231.25;;;2.34;79.23
74613;BME280;63119;51.788;8.824;2023-04-26T03:11:05;100235.47;;;2.08;79.73
74613;BME280;63119;51.788;8.824;2023-04-26T03:13:30;100241.59;;;2.07;80.22
74613;BME280;63119;51.788;8.824;2023-04-26T03:15:56;100239.84;;;2.08;80.66
74613;BME280;63119;51.788;8.824;2023-04-26T03:18:21;100241.66;;;2.06;80.67
74613;BME280;63119;51.788;8.824;2023-04-26T03:20:46;100241.66;;;2.06;80.52
74613;BME280;63119;51.788;8.824;2023-04-26T03:23:12;100243.47;;;2.02;80.44
74613;BME280;63119;51.788;8.824;2023-04-26T03:25:37;100238.19;;;2.05;80.38
74613;BME280;63119;51.788;8.824;2023-04-26T03:28:02;100233.66;;;1.81;80.89
74613;BME280;63119;51.788;8.824;2023-04-26T03:30:28;100236.13;;;1.86;80.64
74613;BME280;63119;51.788;8.824;2023-04-26T03:32:54;100242.09;;;1.60;82.61
74613;BME280;63119;51.788;8.824;2023-04-26T03:35:19;100240.72;;;1.78;81.70
74613;BME280;63119;51.788;8.824;2023-04-26T03:37:45;100241.03;;;1.67;81.55
74613;BME280;63119;51.788;8.824;2023-04-26T03:40:10;100235.97;;;1.61;82.19
74613;BME280;63119;51.788;8.824;2023-04-26T03:42:36;100229.31;;;1.51;83.03
74613;BME280;63119;51.788;8.824;2023-04-26T03:45:02;100234.28;;;1.58;82.71
74613;BME280;63119;51.788;8.824;2023-04-26T03:47:30;100226.72;;;1.80;81.54
74613;BME280;63119;51.788;8.824;2023-04-26T03:49:56;100231.31;;;1.72;81.51
74613;BME280;63119;51.788;8.824;2023-04-26T03:52:21;100230.03;;;1.87;80.43
74613;BME280;63119;51.788;8.824;2023-04-26T03:54:47;100222.69;;;1.99;80.45
74613;BME280;63119;51.788;8.824;2023-04-26T03:57:12;100223.56;;;2.00;79.46
74613;BME280;63119;51.788;8.824;2023-04-26T03:59:37;100221.94;;;1.96;79.30
74613;BME280;63119;51.788;8.824;2023-04-26T04:02:03;100226.38;;;1.92;79.46
74613;BME280;63119;51.788;8.824;2023-04-26T04:04:28;100229.41;;;1.77;80.57
74613;BME280;63119;51.788;8.824;2023-04-26T04:06:53;100225.75;;;1.84;80.37
74613;BME280;63119;51.788;8.824;2023-04-26T04:09:19;100228.97;;;1.92;80.06
74613;BME280;63119;51.788;8.824;2023-04-26T04:11:44;100227.84;;;1.72;81.52
74613;BME280;63119;51.788;8.824;2023-04-26T04:14:09;100228.72;;;1.72;80.88
74613;BME280;63119;51.788;8.824;2023-04-26T04:16:34;100226.63;;;1.83;80.18
74613;BME280;63119;51.788;8.824;2023-04-26T04:19:00;100233.41;;;1.90;80.17
74613;BME280;63119;51.788;8.824;2023-04-26T04:21:25;100231.84;;;1.83;80.47
74613;BME280;63119;51.788;8.824;2023-04-26T04:23:51;100235.94;;;1.92;80.17
74613;BME280;63119;51.788;8.824;2023-04-26T04:26:17;100239.50;;;1.89;80.87
74613;BME280;63119;51.788;8.824;2023-04-26T04:28:43;100238.63;;;1.90;80.07
74613;BME280;63119;51.788;8.824;2023-04-26T04:31:09;100240.34;;;1.91;80.05
74613;BME280;63119;51.788;8.824;2023-04-26T04:33:35;100236.91;;;1.89;80.66
74613;BME280;63119;51.788;8.824;2023-04-26T04:36:00;100238.53;;;1.93;80.60
74613;BME280;63119;51.788;8.824;2023-04-26T04:38:26;100242.34;;;2.11;79.68
74613;BME280;63119;51.788;8.824;2023-04-26T04:40:51;100249.50;;;2.34;79.04
74613;BME280;63119;51.788;8.824;2023-04-26T04:43:16;100241.09;;;2.24;79.95
74613;BME280;63119;51.788;8.824;2023-04-26T04:45:42;100245.66;;;2.45;78.91
74613;BME280;63119;51.788;8.824;2023-04-26T04:48:07;100253.06;;;2.59;78.19
74613;BME280;63119;51.788;8.824;2023-04-26T04:50:33;100255.47;;;3.19;76.43
74613;BME280;63119;51.788;8.824;2023-04-26T04:53:00;100253.94;;;3.63;74.03
74613;BME280;63119;51.788;8.824;2023-04-26T04:55:25;100253.03;;;3.87;73.40
74613;BME280;63119;51.788;8.824;2023-04-26T04:57:50;100254.88;;;3.85;72.90
74613;BME280;63119;51.788;8.824;2023-04-26T05:00:16;100252.22;;;3.37;74.49
74613;BME280;63119;51.788;8.824;2023-04-26T05:02:41;100261.94;;;3.07;76.21
74613;BME280;63119;51.788;8.824;2023-04-26T05:05:07;100250.88;;;2.99;76.79
74613;BME280;63119;51.788;8.824;2023-04-26T05:07:33;100250.72;;;2.50;79.05
74613;BME280;63119;51.788;8.824;2023-04-26T05:09:58;100260.28;;;2.79;78.04
74613;BME280;63119;51.788;8.824;2023-04-26T05:12:24;100265.75;;;2.71;78.84
74613;BME280;63119;51.788;8.824;2023-04-26T05:14:50;100271.50;;;3.08;77.26
74613;BME280;63119;51.788;8.824;2023-04-26T05:17:15;100272.00;;;4.40;73.87
74613;BME280;63119;51.788;8.824;2023-04-26T05:19:40;100269.25;;;5.08;71.18
74613;BME280;63119;51.788;8.824;2023-04-26T05:22:05;100264.72;;;5.74;69.48
74613;BME280;63119;51.788;8.824;2023-04-26T05:24:31;100264.63;;;6.16;66.84
74613;BME280;63119;51.788;8.824;2023-04-26T05:26:59;100265.19;;;6.22;67.45
74613;BME280;63119;51.788;8.824;2023-04-26T05:29:28;100256.03;;;6.49;65.91
74613;BME280;63119;51.788;8.824;2023-04-26T05:31:54;100271.06;;;6.83;65.02
74613;BME280;63119;51.788;8.824;2023-04-26T05:34:19;100272.41;;;7.09;64.54
74613;BME280;63119;51.788;8.824;2023-04-26T05:36:44;100263.19;;;7.00;64.93
74613;BME280;63119;51.788;8.824;2023-04-26T05:39:09;100276.59;;;6.96;64.93
74613;BME280;63119;51.788;8.824;2023-04-26T05:41:36;100266.78;;;7.34;65.58
74613;BME280;63119;51.788;8.824;2023-04-26T05:44:01;100270.47;;;6.95;65.36
74613;BME280;63119;51.788;8.824;2023-04-26T05:46:27;100275.44;;;7.19;65.13
74613;BME280;63119;51.788;8.824;2023-04-26T05:48:52;100269.63;;;7.12;64.79
74613;BME280;63119;51.788;8.824;2023-04-26T05:51:17;100278.47;;;7.28;64.46
74613;BME280;63119;51.788;8.824;2023-04-26T05:53:43;100272.13;;;7.15;65.12
74613;BME280;63119;51.788;8.824;2023-04-26T05:56:08;100272.81;;;7.36;65.34
74613;BME280;63119;51.788;8.824;2023-04-26T05:58:33;100276.16;;;7.39;65.03
74613;BME280;63119;51.788;8.824;2023-04-26T06:00:58;100285.00;;;7.38;64.93
74613;BME280;63119;51.788;8.824;2023-04-26T06:03:24;100278.41;;;7.81;64.28
74613;BME280;63119;51.788;8.824;2023-04-26T06:05:49;100275.06;;;7.78;63.90
74613;BME280;63119;51.788;8.824;2023-04-26T06:08:14;100282.41;;;8.21;63.87
74613;BME280;63119;51.788;8.824;2023-04-26T06:10:40;100284.72;;;8.44;62.60
74613;BME280;63119;51.788;8.824;2023-04-26T06:13:05;100287.09;;;8.64;61.73
74613;BME280;63119;51.788;8.824;2023-04-26T06:15:31;100278.13;;;8.51;61.15
74613;BME280;63119;51.788;8.824;2023-04-26T06:17:56;100277.97;;;9.01;63.56
74613;BME280;63119;51.788;8.824;2023-04-26T06:20:22;100281.38;;;9.03;60.60
74613;BME280;63119;51.788;8.824;2023-04-26T06:22:47;100287.19;;;8.63;60.97
74613;BME280;63119;51.788;8.824;2023-04-26T06:25:12;100299.19;;;8.84;61.54
74613;BME280;63119;51.788;8.824;2023-04-26T06:27:38;100291.50;;;8.48;61.03
74613;BME280;63119;51.788;8.824;2023-04-26T06:30:05;100290.75;;;9.09;60.41
74613;BME280;63119;51.788;8.824;2023-04-26T06:32:30;100288.56;;;9.31;59.28
74613;BME280;63119;51.788;8.824;2023-04-26T06:34:56;100301.31;;;9.09;59.19
74613;BME280;63119;51.788;8.824;2023-04-26T06:37:21;100298.59;;;9.40;58.45
74613;BME280;63119;51.788;8.824;2023-04-26T06:39:46;100300.22;;;9.72;57.70
74613;BME280;63119;51.788;8.824;2023-04-26T06:42:11;100298.50;;;9.71;58.15
74613;BME280;63119;51.788;8.824;2023-04-26T06:44:37;100297.38;;;10.33;57.77
74613;BME280;63119;51.788;8.824;2023-04-26T06:47:02;100306.53;;;10.42;56.69
74613;BME280;63119;51.788;8.824;2023-04-26T06:49:27;100302.56;;;10.21;56.18
74613;BME280;63119;51.788;8.824;2023-04-26T06:51:52;100310.16;;;9.53;57.18
74613;BME280;63119;51.788;8.824;2023-04-26T06:54:18;100314.50;;;9.54;57.93
74613;BME280;63119;51.788;8.824;2023-04-26T06:56:43;100305.22;;;10.21;56.84
74613;BME280;63119;51.788;8.824;2023-04-26T06:59:09;100313.44;;;9.86;56.96
74613;BME280;63119;51.788;8.824;2023-04-26T07:01:34;100311.31;;;9.63;57.93
74613;BME280;63119;51.788;8.824;2023-04-26T07:04:04;100313.13;;;9.63;58.08
74613;BME280;63119;51.788;8.824;2023-04-26T07:06:31;100309.88;;;9.87;56.61
74613;BME280;63119;51.788;8.824;2023-04-26T07:08:57;100298.28;;;10.75;55.49
74613;BME280;63119;51.788;8.824;2023-04-26T07:11:22;100305.66;;;10.70;53.52
74613;BME280;63119;51.788;8.824;2023-04-26T07:13:48;100301.72;;;10.49;55.17
74613;BME280;63119;51.788;8.824;2023-04-26T07:16:13;100306.69;;;10.67;55.41
74613;BME280;63119;51.788;8.824;2023-04-26T07:18:39;100305.38;;;10.60;55.30
74613;BME280;63119;51.788;8.824;2023-04-26T07:21:05;100306.22;;;11.28;54.16
74613;BME280;63119;51.788;8.824;2023-04-26T07:23:30;100301.13;;;11.65;53.17
74613;BME280;63119;51.788;8.824;2023-04-26T07:25:56;100305.59;;;11.51;53.17
74613;BME280;63119;51.788;8.824;2023-04-26T07:28:21;100300.28;;;11.51;51.30
74613;BME280;63119;51.788;8.824;2023-04-26T07:30:46;100294.44;;;11.73;51.98
74613;BME280;63119;51.788;8.824;2023-04-26T07:33:11;100298.06;;;11.97;51.35
74613;BME280;63119;51.788;8.824;2023-04-26T07:35:37;100302.31;;;11.21;52.57
74613;BME280;63119;51.788;8.824;2023-04-26T07:38:02;100302.50;;;11.18;52.79
74613;BME280;63119;51.788;8.824;2023-04-26T07:40:28;100300.91;;;11.42;50.61
74613;BME280;63119;51.788;8.824;2023-04-26T07:42:54;100288.47;;;11.43;51.01
74613;BME280;63119;51.788;8.824;2023-04-26T07:45:19;100288.50;;;12.07;50.23
74613;BME280;63119;51.788;8.824;2023-04-26T07:47:45;100292.41;;;11.50;51.56
74613;BME280;63119;51.788;8.824;2023-04-26T07:50:10;100296.22;;;11.46;51.97
74613;BME280;63119;51.788;8.824;2023-04-26T07:52:36;100298.53;;;10.70;52.13
74613;BME280;63119;51.788;8.824;2023-04-26T07:55:01;100298.41;;;10.45;53.14
74613;BME280;63119;51.788;8.824;2023-04-26T07:57:27;100297.06;;;10.52;53.98
74613;BME280;63119;51.788;8.824;2023-04-26T07:59:52;100289.25;;;10.22;54.86
74613;BME280;63119;51.788;8.824;2023-04-26T08:02:17;100292.53;;;10.40;54.81
74613;BME280;63119;51.788;8.824;2023-04-26T08:04:49;100296.91;;;10.27;55.07
74613;BME280;63119;51.788;8.824;2023-04-26T08:07:19;100300.69;;;10.51;54.77
74613;BME280;63119;51.788;8.824;2023-04-26T08:09:44;100294.69;;;10.76;52.81
74613;BME280;63119;51.788;8.824;2023-04-26T08:12:11;100291.41;;;11.26;53.78
74613;BME280;63119;51.788;8.824;2023-04-26T08:14:36;100297.16;;;11.72;50.77
74613;BME280;63119;51.788;8.824;2023-04-26T08:17:02;100295.50;;;10.90;50.61
74613;BME280;63119;51.788;8.824;2023-04-26T08:19:28;100296.03;;;10.95;50.23
74613;BME280;63119;51.788;8.824;2023-04-26T08:21:55;100296.97;;;10.94;50.87
74613;BME280;63119;51.788;8.824;2023-04-26T08:24:21;100292.09;;;11.42;51.40
74613;BME280;63119;51.788;8.824;2023-04-26T08:26:46;100301.03;;;10.59;51.12
74613;BME280;63119;51.788;8.824;2023-04-26T08:29:11;100295.50;;;10.76;51.37
74613;BME280;63119;51.788;8.824;2023-04-26T08:31:37;100295.56;;;11.30;50.14
74613;BME280;63119;51.788;8.824;2023-04-26T08:34:02;100291.72;;;11.34;48.76
74613;BME280;63119;51.788;8.824;2023-04-26T08:36:27;100287.72;;;11.80;48.00
74613;BME280;63119;51.788;8.824;2023-04-26T08:38:52;100286.88;;;11.40;48.95
74613;BME280;63119;51.788;8.824;2023-04-26T08:41:21;100295.97;;;11.24;50.90
74613;BME280;63119;51.788;8.824;2023-04-26T08:43:48;100297.16;;;11.06;51.03
74613;BME280;63119;51.788;8.824;2023-04-26T08:46:14;100295.34;;;10.65;51.56
74613;BME280;63119;51.788;8.824;2023-04-26T08:48:43;100297.44;;;11.01;51.25
74613;BME280;63119;51.788;8.824;2023-04-26T08:51:11;100294.41;;;10.52;50.06
74613;BME280;63119;51.788;8.824;2023-04-26T08:53:37;100299.50;;;10.55;51.59
74613;BME280;63119;51.788;8.824;2023-04-26T08:56:03;100287.25;;;10.54;51.91
74613;BME280;63119;51.788;8.824;2023-04-26T08:58:29;100294.34;;;10.54;52.51
74613;BME280;63119;51.788;8.824;2023-04-26T09:00:54;100295.75;;;10.59;54.14
74613;BME280;63119;51.788;8.824;2023-04-26T09:03:21;100293.84;;;10.61;51.37
74613;BME280;63119;51.788;8.824;2023-04-26T09:05:47;100294.72;;;10.48;49.82
74613;BME280;63119;51.788;8.824;2023-04-26T09:08:17;100289.50;;;10.60;49.29
74613;BME280;63119;51.788;8.824;2023-04-26T09:10:43;100283.75;;;10.54;50.38
74613;BME280;63119;51.788;8.824;2023-04-26T09:13:09;100286.09;;;10.02;50.68
74613;BME280;63119;51.788;8.824;2023-04-26T09:15:35;100286.84;;;10.04;52.03
74613;BME280;63119;51.788;8.824;2023-04-26T09:18:17;100297.16;;;9.64;52.05
74613;BME280;63119;51.788;8.824;2023-04-26T09:20:44;100288.88;;;9.70;52.88
74613;BME280;63119;51.788;8.824;2023-04-26T09:23:09;100298.69;;;9.82;52.87
74613;BME280;63119;51.788;8.824;2023-04-26T09:25:36;100292.13;;;9.89;52.97
74613;BME280;63119;51.788;8.824;2023-04-26T09:28:02;100294.81;;;10.18;52.38
74613;BME280;63119;51.788;8.824;2023-04-26T09:30:28;100299.97;;;10.76;50.86
74613;BME280;63119;51.788;8.824;2023-04-26T09:32:56;100287.00;;;11.39;49.75
74613;BME280;63119;51.788;8.824;2023-04-26T09:38:00;100297.00;;;12.13;47.42
74613;BME280;63119;51.788;8.824;2023-04-26T09:40:30;100289.13;;;12.49;45.15
74613;BME280;63119;51.788;8.824;2023-04-26T09:43:01;100283.81;;;12.24;45.25
74613;BME280;63119;51.788;8.824;2023-04-26T09:45:28;100289.69;;;11.51;43.01
74613;BME280;63119;51.788;8.824;2023-04-26T09:47:53;100299.41;;;11.12;43.95
74613;BME280;63119;51.788;8.824;2023-04-26T09:50:29;100296.09;;;10.67;46.59
74613;BME280;63119;51.788;8.824;2023-04-26T09:52:55;100295.09;;;10.41;47.06
74613;BME280;63119;51.788;8.824;2023-04-26T09:55:28;100299.63;;;10.25;48.07
74613;BME280;63119;51.788;8.824;2023-04-26T09:57:55;100289.03;;;10.11;47.80
74613;BME280;63119;51.788;8.824;2023-04-26T10:00:22;100298.97;;;10.22;47.55
74613;BME280;63119;51.788;8.824;2023-04-26T10:02:48;100300.91;;;10.04;49.17
74613;BME280;63119;51.788;8.824;2023-04-26T10:05:14;100299.31;;;10.02;49.65
74613;BME280;63119;51.788;8.824;2023-04-26T10:07:39;100298.38;;;10.03;49.38
74613;BME280;63119;51.788;8.824;2023-04-26T10:10:06;100302.31;;;10.10;49.09
74613;BME280;63119;51.788;8.824;2023-04-26T10:12:33;100292.59;;;9.96;49.60
74613;BME280;63119;51.788;8.824;2023-04-26T10:14:58;100294.94;;;10.01;49.80
74613;BME280;63119;51.788;8.824;2023-04-26T10:17:23;100293.66;;;9.94;49.78
74613;BME280;63119;51.788;8.824;2023-04-26T10:19:52;100298.13;;;9.77;50.67
74613;BME280;63119;51.788;8.824;2023-04-26T10:22:21;100297.03;;;9.96;50.35
74613;BME280;63119;51.788;8.824;2023-04-26T10:24:48;100292.59;;;9.96;48.38
74613;BME280;63119;51.788;8.824;2023-04-26T10:27:13;100293.34;;;9.84;48.30
74613;BME280;63119;51.788;8.824;2023-04-26T10:32:21;100298.25;;;9.90;49.07
74613;BME280;63119;51.788;8.824;2023-04-26T10:35:10;100291.94;;;9.93;49.41
74613;BME280;63119;51.788;8.824;2023-04-26T10:37:57;100289.47;;;9.75;49.74
74613;BME280;63119;51.788;8.824;2023-04-26T10:40:24;100286.59;;;9.64;50.16
74613;BME280;63119;51.788;8.824;2023-04-26T10:42:50;100292.59;;;9.52;50.79
74613;BME280;63119;51.788;8.824;2023-04-26T10:45:26;100287.31;;;9.52;51.43
74613;BME280;63119;51.788;8.824;2023-04-26T10:48:28;100282.19;;;9.49;50.80
74613;BME280;63119;51.788;8.824;2023-04-26T10:56:08;100294.53;;;9.34;51.40
74613;BME280;63119;51.788;8.824;2023-04-26T10:58:34;100289.25;;;9.19;52.33
74613;BME280;63119;51.788;8.824;2023-04-26T11:01:08;100279.56;;;9.19;51.83
74613;BME280;63119;51.788;8.824;2023-04-26T11:03:35;100293.22;;;9.12;51.11
74613;BME280;63119;51.788;8.824;2023-04-26T11:06:05;100292.91;;;9.32;51.83
74613;BME280;63119;51.788;8.824;2023-04-26T11:08:31;100285.16;;;9.29;50.85
74613;BME280;63119;51.788;8.824;2023-04-26T11:11:04;100293.66;;;9.34;51.54
74613;BME280;63119;51.788;8.824;2023-04-26T11:13:31;100285.63;;;9.51;50.48
74613;BME280;63119;51.788;8.824;2023-04-26T11:16:01;100285.72;;;9.64;50.02
74613;BME280;63119;51.788;8.824;2023-04-26T11:18:34;100286.34;;;9.83;49.47
74613;BME280;63119;51.788;8.824;2023-04-26T11:21:00;100284.19;;;9.89;48.56
74613;BME280;63119;51.788;8.824;2023-04-26T11:23:28;100291.56;;;9.84;49.72
74613;BME280;63119;51.788;8.824;2023-04-26T11:25:59;100280.09;;;10.14;49.50
74613;BME280;63119;51.788;8.824;2023-04-26T11:28:27;100279.88;;;10.31;48.56
74613;BME280;63119;51.788;8.824;2023-04-26T11:30:52;100282.34;;;10.20;47.31
74613;BME280;63119;51.788;8.824;2023-04-26T11:33:19;100281.09;;;10.11;47.44
74613;BME280;63119;51.788;8.824;2023-04-26T11:35:46;100290.34;;;10.04;48.41
74613;BME280;63119;51.788;8.824;2023-04-26T11:38:12;100287.03;;;10.01;48.26
74613;BME280;63119;51.788;8.824;2023-04-26T11:40:37;100291.63;;;9.97;49.44
74613;BME280;63119;51.788;8.824;2023-04-26T11:43:03;100291.56;;;9.99;49.27
74613;BME280;63119;51.788;8.824;2023-04-26T11:45:31;100299.88;;;10.07;48.28
74613;BME280;63119;51.788;8.824;2023-04-26T11:47:56;100289.88;;;10.12;49.13
74613;BME280;63119;51.788;8.824;2023-04-26T11:50:23;100292.88;;;9.92;49.57
74613;BME280;63119;51.788;8.824;2023-04-26T11:52:55;100292.19;;;9.74;48.58
74613;BME280;63119;51.788;8.824;2023-04-26T11:55:27;100289.84;;;9.83;48.27
74613;BME280;63119;51.788;8.824;2023-04-26T11:57:53;100291.31;;;9.73;49.04
74613;BME280;63119;51.788;8.824;2023-04-26T12:00:18;100293.41;;;9.68;49.79
74613;BME280;63119;51.788;8.824;2023-04-26T12:02:46;100292.53;;;9.68;49.92
74613;BME280;63119;51.788;8.824;2023-04-26T12:05:25;100292.09;;;9.75;49.76
74613;BME280;63119;51.788;8.824;2023-04-26T12:07:55;100304.16;;;9.79;49.46
74613;BME280;63119;51.788;8.824;2023-04-26T12:10:24;100292.19;;;9.74;49.27
74613;BME280;63119;51.788;8.824;2023-04-26T12:12:50;100291.44;;;9.86;49.27
74613;BME280;63119;51.788;8.824;2023-04-26T12:15:23;100293.13;;;10.17;48.68
74613;BME280;63119;51.788;8.824;2023-04-26T12:18:07;100288.75;;;10.44;48.26
74613;BME280;63119;51.788;8.824;2023-04-26T12:20:40;100291.38;;;10.58;47.39
74613;BME280;63119;51.788;8.824;2023-04-26T12:23:07;100288.47;;;10.63;46.79
74613;BME280;63119;51.788;8.824;2023-04-26T12:25:34;100288.44;;;11.04;47.10
74613;BME280;63119;51.788;8.824;2023-04-26T12:28:01;100274.38;;;11.03;45.20
74613;BME280;63119;51.788;8.824;2023-04-26T12:30:28;100274.41;;;11.42;44.65
74613;BME280;63119;51.788;8.824;2023-04-26T12:32:53;100267.81;;;11.75;45.25
74613;BME280;63119;51.788;8.824;2023-04-26T12:35:20;100266.75;;;11.90;44.38
74613;BME280;63119;51.788;8.824;2023-04-26T12:37:45;100265.16;;;11.75;43.10
74613;BME280;63119;51.788;8.824;2023-04-26T12:40:12;100269.31;;;11.52;44.53
74613;BME280;63119;51.788;8.824;2023-04-26T12:42:37;100261.16;;;11.55;41.56
74613;BME280;63119;51.788;8.824;2023-04-26T12:45:03;100262.34;;;11.64;40.90
74613;BME280;63119;51.788;8.824;2023-04-26T12:47:29;100266.88;;;11.62;40.52
74613;BME280;63119;51.788;8.824;2023-04-26T12:49:55;100269.72;;;11.46;42.62
74613;BME280;63119;51.788;8.824;2023-04-26T12:52:21;100259.75;;;11.49;41.67
74613;BME280;63119;51.788;8.824;2023-04-26T12:54:46;100264.75;;;11.41;42.64
74613;BME280;63119;51.788;8.824;2023-04-26T12:57:13;100264.66;;;10.89;42.72
74613;BME280;63119;51.788;8.824;2023-04-26T12:59:38;100272.53;;;10.77;41.93
74613;BME280;63119;51.788;8.824;2023-04-26T13:02:03;100272.25;;;10.81;43.29
74613;BME280;63119;51.788;8.824;2023-04-26T13:04:29;100271.47;;;10.67;42.48